createdAt,value
2018-09-21T00:00:11.262Z,1005.68
2018-09-21T00:01:11.236Z,1005.63
2018-09-21T00:02:11.221Z,1005.57
2018-09-21T00:03:11.187Z,1005.66
2018-09-21T00:04:11.161Z,1005.55
2018-09-21T00:05:11.141Z,1005.51
2018-09-21T00:06:11.121Z,1005.47
2018-09-21T00:07:11.088Z,1005.51
2018-09-21T00:21:32.414Z,1005.23
2018-09-21T00:22:31.886Z,1005.28
2018-09-21T00:23:31.859Z,1005.34
2018-09-21T00:24:31.846Z,1005.27
2018-09-21T00:25:31.807Z,1005.18
2018-09-21T00:26:31.781Z,1005.20
2018-09-21T00:27:31.757Z,1005.22
2018-09-21T00:28:31.734Z,1005.13
2018-09-21T00:29:31.709Z,1005.19
2018-09-21T00:30:31.680Z,1005.12
2018-09-21T00:31:31.666Z,1005.19
2018-09-21T00:32:31.632Z,1005.14
2018-09-21T00:33:31.605Z,1005.10
2018-09-21T00:34:31.582Z,1005.10
2018-09-21T00:35:31.559Z,1005.11
2018-09-21T00:36:31.530Z,1005.10
2018-09-21T00:37:31.506Z,1005.09
2018-09-21T00:38:31.479Z,1005.09
2018-09-21T00:39:31.457Z,1005.08
2018-09-21T00:40:31.430Z,1005.11
2018-09-21T00:41:31.406Z,1005.08
2018-09-21T00:42:31.380Z,1005.02
2018-09-21T00:43:31.355Z,1005.01
2018-09-21T00:44:31.334Z,1004.96
2018-09-21T00:45:31.457Z,1004.98
2018-09-21T00:46:31.283Z,1004.99
2018-09-21T00:47:31.255Z,1005.00
2018-09-21T00:48:31.234Z,1004.96
2018-09-21T00:49:31.206Z,1004.92
2018-09-21T00:50:31.185Z,1004.92
2018-09-21T00:51:31.167Z,1004.93
2018-09-21T00:52:31.132Z,1004.91
2018-09-21T00:53:31.108Z,1004.90
2018-09-21T00:54:31.080Z,1004.92
2018-09-21T00:55:31.056Z,1004.87
2018-09-21T00:56:31.032Z,1004.86
2018-09-21T00:57:31.008Z,1004.80
2018-09-21T00:58:30.981Z,1004.79
2018-09-21T00:59:30.956Z,1004.75
2018-09-21T01:00:30.931Z,1004.71
2018-09-21T01:01:30.907Z,1004.69
2018-09-21T01:02:30.881Z,1004.74
2018-09-21T01:03:30.856Z,1004.69
2018-09-21T01:04:30.832Z,1004.76
2018-09-21T01:05:30.807Z,1004.78
2018-09-21T01:06:30.781Z,1004.68
2018-09-21T01:07:30.763Z,1004.68
2018-09-21T01:08:30.733Z,1004.67
2018-09-21T01:09:30.711Z,1004.63
2018-09-21T01:10:30.682Z,1004.76
2018-09-21T01:11:30.656Z,1004.71
2018-09-21T01:12:30.637Z,1004.64
2018-09-21T01:13:30.607Z,1004.61
2018-09-21T01:14:30.581Z,1004.58
2018-09-21T01:15:30.566Z,1004.51
2018-09-21T01:16:30.531Z,1004.55
2018-09-21T01:17:30.508Z,1004.54
2018-09-21T01:18:30.481Z,1004.57
2018-09-21T01:19:30.459Z,1004.61
2018-09-21T01:20:30.433Z,1004.61
2018-09-21T01:21:30.412Z,1004.56
2018-09-21T01:22:30.388Z,1004.60
2018-09-21T01:23:30.376Z,1004.54
2018-09-21T01:24:30.332Z,1004.56
2018-09-21T01:25:30.307Z,1004.60
2018-09-21T01:26:30.281Z,1004.55
2018-09-21T01:27:30.707Z,1004.56
2018-09-21T01:28:30.233Z,1004.49
2018-09-21T01:29:30.208Z,1004.51
2018-09-21T01:30:30.181Z,1004.48
2018-09-21T01:31:30.159Z,1004.49
2018-09-21T01:32:30.133Z,1004.46
2018-09-21T01:33:30.112Z,1004.39
2018-09-21T01:34:30.081Z,1004.42
2018-09-21T01:35:30.057Z,1004.43
2018-09-21T01:36:30.044Z,1004.41
2018-09-21T01:37:30.007Z,1004.38
2018-09-21T01:38:29.981Z,1004.37
2018-09-21T01:39:29.956Z,1004.42
2018-09-21T01:40:29.932Z,1004.41
2018-09-21T01:41:29.907Z,1004.35
2018-09-21T01:42:29.879Z,1004.39
2018-09-21T01:43:29.856Z,1004.34
2018-09-21T01:44:29.831Z,1004.31
2018-09-21T01:45:29.806Z,1004.33
2018-09-21T01:46:29.788Z,1004.27
2018-09-21T01:47:29.756Z,1004.27
2018-09-21T01:48:29.740Z,1004.27
2018-09-21T01:49:29.707Z,1004.21
2018-09-21T01:50:29.734Z,1004.25
2018-09-21T01:51:29.659Z,1004.19
2018-09-21T01:52:29.630Z,1004.19
2018-09-21T01:53:29.605Z,1004.19
2018-09-21T01:54:29.579Z,1004.15
2018-09-21T01:55:29.554Z,1004.21
2018-09-21T01:56:29.531Z,1004.14
2018-09-21T01:57:29.504Z,1004.09
2018-09-21T01:58:29.479Z,1004.02
2018-09-21T01:59:29.454Z,1003.98
2018-09-21T02:00:29.429Z,1004.01
2018-09-21T02:01:29.405Z,1004.08
2018-09-21T02:02:29.379Z,1004.04
2018-09-21T02:03:29.353Z,1004.03
2018-09-21T02:04:29.329Z,1004.07
2018-09-21T02:05:29.304Z,1004.07
2018-09-21T02:06:29.281Z,1004.03
2018-09-21T02:07:29.267Z,1004.05
2018-09-21T02:08:29.239Z,1003.99
2018-09-21T02:09:30.285Z,1004.05
2018-09-21T02:10:29.180Z,1004.01
2018-09-21T02:11:29.154Z,1003.98
2018-09-21T02:12:29.129Z,1003.97
2018-09-21T02:13:29.104Z,1003.93
2018-09-21T02:14:29.077Z,1003.92
2018-09-21T02:15:29.067Z,1003.90
2018-09-21T02:16:29.027Z,1003.86
2018-09-21T02:17:29.008Z,1003.89
2018-09-21T02:18:28.979Z,1003.84
2018-09-21T02:19:28.953Z,1003.79
2018-09-21T02:20:29.227Z,1003.81
2018-09-21T02:21:28.902Z,1003.80
2018-09-21T02:22:28.877Z,1003.71
2018-09-21T02:23:28.870Z,1003.62
2018-09-21T02:24:28.829Z,1003.66
2018-09-21T02:25:28.806Z,1003.62
2018-09-21T02:26:28.830Z,1003.64
2018-09-21T02:27:28.751Z,1003.61
2018-09-21T02:28:28.727Z,1003.60
2018-09-21T02:29:28.705Z,1003.53
2018-09-21T02:30:28.682Z,1003.51
2018-09-21T02:31:28.651Z,1003.43
2018-09-21T02:32:28.919Z,1003.46
2018-09-21T02:33:28.606Z,1003.43
2018-09-21T02:34:28.577Z,1003.41
2018-09-21T02:35:28.561Z,1003.47
2018-09-21T02:36:28.528Z,1003.42
2018-09-21T02:37:28.504Z,1003.39
2018-09-21T02:38:28.479Z,1003.39
2018-09-21T02:39:28.453Z,1003.35
2018-09-21T02:40:28.428Z,1003.35
2018-09-21T02:41:28.468Z,1003.36
2018-09-21T02:42:28.580Z,1003.40
2018-09-21T02:43:28.353Z,1003.38
2018-09-21T02:44:28.530Z,1003.33
2018-09-21T02:45:28.506Z,1003.35
2018-09-21T02:46:28.278Z,1003.38
2018-09-21T02:47:28.254Z,1003.34
2018-09-21T02:48:28.432Z,1003.36
2018-09-21T02:49:28.203Z,1003.34
2018-09-21T02:50:28.644Z,1003.35
2018-09-21T02:51:28.153Z,1003.35
2018-09-21T02:52:28.139Z,1003.25
2018-09-21T02:53:28.104Z,1003.22
2018-09-21T02:54:28.079Z,1003.25
2018-09-21T02:55:28.054Z,1003.28
2018-09-21T02:56:28.032Z,1003.30
2018-09-21T02:57:28.003Z,1003.20
2018-09-21T02:58:27.977Z,1003.17
2018-09-21T02:59:27.955Z,1003.16
2018-09-21T03:00:28.031Z,1003.02
2018-09-21T03:01:27.904Z,1003.05
2018-09-21T03:02:27.878Z,1003.01
2018-09-21T03:03:27.854Z,1003.07
2018-09-21T03:04:27.842Z,1003.03
2018-09-21T03:05:27.804Z,1002.90
2018-09-21T03:06:28.033Z,1003.01
2018-09-21T03:07:27.755Z,1002.97
2018-09-21T03:08:27.729Z,1002.99
2018-09-21T03:09:27.704Z,1002.99
2018-09-21T03:10:27.880Z,1002.95
2018-09-21T03:11:27.855Z,1002.91
2018-09-21T03:12:27.830Z,1002.91
2018-09-21T03:13:27.607Z,1002.87
2018-09-21T03:14:27.577Z,1002.83
2018-09-21T03:15:27.562Z,1002.82
2018-09-21T03:16:27.529Z,1002.82
2018-09-21T03:17:27.704Z,1002.77
2018-09-21T03:18:27.480Z,1002.72
2018-09-21T03:20:09.804Z,1002.75
2018-09-21T03:21:09.780Z,1002.66
2018-09-21T03:22:09.551Z,1002.70
2018-09-21T03:23:09.528Z,1002.66
2018-09-21T03:24:09.802Z,1002.61
2018-09-21T03:25:09.479Z,1002.65
2018-09-21T03:26:09.452Z,1002.60
2018-09-21T03:27:09.425Z,1002.57
2018-09-21T03:28:09.403Z,1002.55
2018-09-21T03:29:09.375Z,1002.47
2018-09-21T03:30:09.359Z,1002.52
2018-09-21T03:31:09.326Z,1002.50
2018-09-21T03:32:09.300Z,1002.48
2018-09-21T03:33:09.280Z,1002.46
2018-09-21T03:34:09.249Z,1002.49
2018-09-21T03:35:09.279Z,1002.56
2018-09-21T03:36:09.200Z,1002.48
2018-09-21T03:37:09.176Z,1002.49
2018-09-21T03:38:09.152Z,1002.44
2018-09-21T03:39:09.123Z,1002.43
2018-09-21T03:40:09.103Z,1002.39
2018-09-21T03:41:09.080Z,1002.44
2018-09-21T03:42:09.048Z,1002.39
2018-09-21T03:43:09.027Z,1002.40
2018-09-21T03:44:08.999Z,1002.37
2018-09-21T03:45:08.972Z,1002.34
2018-09-21T03:46:08.956Z,1002.33
2018-09-21T03:47:08.973Z,1002.29
2018-09-21T03:48:08.896Z,1002.18
2018-09-21T03:49:08.870Z,1002.23
2018-09-21T03:50:08.847Z,1002.18
2018-09-21T03:51:08.822Z,1002.16
2018-09-21T03:52:08.798Z,1002.02
2018-09-21T03:53:08.771Z,1001.99
2018-09-21T03:54:08.746Z,1002.02
2018-09-21T03:55:08.724Z,1001.99
2018-09-21T03:56:08.696Z,1001.94
2018-09-21T03:57:08.671Z,1001.95
2018-09-21T03:58:08.645Z,1001.93
2018-09-21T03:59:08.627Z,1001.88
2018-09-21T04:00:08.596Z,1001.92
2018-09-21T04:01:08.583Z,1001.86
2018-09-21T04:02:08.545Z,1001.83
2018-09-21T04:03:08.527Z,1001.85
2018-09-21T04:04:08.494Z,1001.79
2018-09-21T04:05:08.469Z,1001.81
2018-09-21T04:06:08.450Z,1001.68
2018-09-21T04:07:08.419Z,1001.69
2018-09-21T04:08:08.394Z,1001.59
2018-09-21T04:09:08.370Z,1001.51
2018-09-21T04:10:08.344Z,1001.57
2018-09-21T04:11:08.324Z,1001.56
2018-09-21T04:12:08.294Z,1001.56
2018-09-21T04:13:08.274Z,1001.52
2018-09-21T04:14:08.252Z,1001.48
2018-09-21T04:15:08.218Z,1001.53
2018-09-21T04:16:08.194Z,1001.43
2018-09-21T04:17:08.171Z,1001.31
2018-09-21T04:18:08.143Z,1001.40
2018-09-21T04:19:08.122Z,1001.33
2018-09-21T04:20:08.096Z,1001.27
2018-09-21T04:21:08.069Z,1001.15
2018-09-21T04:22:08.044Z,1001.25
2018-09-21T04:23:08.121Z,1001.12
2018-09-21T04:24:07.994Z,1001.14
2018-09-21T04:25:07.967Z,1001.13
2018-09-21T04:26:07.944Z,1001.11
2018-09-21T04:27:07.922Z,1001.01
2018-09-21T04:28:07.894Z,1001.04
2018-09-21T04:29:07.869Z,1000.97
2018-09-21T04:30:07.845Z,1000.84
2018-09-21T04:31:07.819Z,1000.97
2018-09-21T04:32:07.796Z,1000.90
2018-09-21T04:33:07.769Z,1000.99
2018-09-21T04:34:07.744Z,1000.99
2018-09-21T04:35:07.720Z,1001.05
2018-09-21T04:36:07.734Z,1001.00
2018-09-21T04:37:07.671Z,1000.96
2018-09-21T04:38:07.649Z,1001.06
2018-09-21T04:39:07.976Z,1001.01
2018-09-21T04:40:07.594Z,1000.91
2018-09-21T04:41:07.570Z,1001.00
2018-09-21T04:42:07.545Z,1001.01
2018-09-21T04:43:07.519Z,1000.95
2018-09-21T04:44:07.497Z,1000.94
2018-09-21T04:45:07.724Z,1000.87
2018-09-21T04:46:07.446Z,1000.89
2018-09-21T04:47:07.425Z,1000.77
2018-09-21T04:48:07.397Z,1000.84
2018-09-21T04:49:07.372Z,1000.77
2018-09-21T04:50:07.348Z,1000.71
2018-09-21T04:51:07.322Z,1000.72
2018-09-21T04:52:07.301Z,1000.62
2018-09-21T04:53:07.274Z,1000.57
2018-09-21T04:54:07.248Z,1000.44
2018-09-21T04:55:07.226Z,1000.61
2018-09-21T04:56:07.208Z,1000.42
2018-09-21T04:57:07.174Z,1000.63
2018-09-21T04:58:07.150Z,1000.50
2018-09-21T04:59:07.128Z,1000.55
2018-09-21T05:00:07.101Z,1000.44
2018-09-21T05:01:07.076Z,1000.51
2018-09-21T05:02:07.059Z,1000.45
2018-09-21T05:03:07.028Z,1000.47
2018-09-21T05:04:49.356Z,1000.39
2018-09-21T05:05:49.129Z,1000.34
2018-09-21T05:06:49.107Z,1000.26
2018-09-21T05:07:49.081Z,1000.15
2018-09-21T05:08:49.056Z,1000.17
2018-09-21T05:10:31.384Z,1000.20
2018-09-21T05:11:31.157Z,1000.05
2018-09-21T05:12:31.134Z,1000.05
2018-09-21T05:13:32.279Z,1000.15
2018-09-21T05:14:31.086Z,1000.19
2018-09-21T05:15:31.070Z,1000.14
2018-09-21T05:16:31.035Z,1000.15
2018-09-21T05:17:31.017Z,1000.15
2018-09-21T05:18:30.992Z,999.96
2018-09-21T05:19:31.262Z,1000.05
2018-09-21T05:20:30.938Z,1000.04
2018-09-21T05:21:33.738Z,1000.14
2018-09-21T05:22:31.095Z,1000.21
2018-09-21T05:23:30.864Z,1000.12
2018-09-21T05:24:30.841Z,1000.07
2018-09-21T05:25:30.817Z,999.93
2018-09-21T05:26:30.792Z,1000.05
2018-09-21T05:27:30.780Z,1000.03
2018-09-21T05:28:30.743Z,999.61
2018-09-21T05:29:30.720Z,999.79
2018-09-21T05:30:30.706Z,999.88
2018-09-21T05:31:30.872Z,999.88
2018-09-21T05:32:30.647Z,999.93
2018-09-21T05:33:30.624Z,999.98
2018-09-21T05:34:30.653Z,999.82
2018-09-21T05:35:30.575Z,999.90
2018-09-21T05:36:30.551Z,999.87
2018-09-21T05:37:30.529Z,999.80
2018-09-21T05:38:30.504Z,999.77
2018-09-21T05:39:30.479Z,999.79
2018-09-21T05:40:30.456Z,999.66
2018-09-21T05:41:30.431Z,999.75
2018-09-21T05:42:30.408Z,999.87
2018-09-21T05:43:30.385Z,999.83
2018-09-21T05:44:30.361Z,999.88
2018-09-21T05:45:30.345Z,999.76
2018-09-21T05:46:30.315Z,999.69
2018-09-21T05:47:30.288Z,999.80
2018-09-21T05:48:30.470Z,999.76
2018-09-21T05:50:12.597Z,999.75
2018-09-21T05:51:12.597Z,999.52
2018-09-21T05:52:12.347Z,999.73
2018-09-21T05:53:12.535Z,999.79
2018-09-21T05:54:12.304Z,999.98
2018-09-21T05:55:12.292Z,999.85
2018-09-21T05:56:12.278Z,999.74
2018-09-21T05:57:12.229Z,999.78
2018-09-21T05:58:12.247Z,999.81
2018-09-21T05:59:12.184Z,999.89
2018-09-21T06:00:12.160Z,999.85
2018-09-21T06:01:12.137Z,999.73
2018-09-21T06:02:12.211Z,999.76
2018-09-21T06:03:12.093Z,999.93
2018-09-21T06:04:12.067Z,999.77
2018-09-21T06:05:12.044Z,999.53
2018-09-21T06:06:12.234Z,999.64
2018-09-21T06:07:12.002Z,999.67
2018-09-21T06:08:11.979Z,999.66
2018-09-21T06:09:11.953Z,999.58
2018-09-21T06:10:11.937Z,999.73
2018-09-21T06:11:11.905Z,999.68
2018-09-21T06:12:11.887Z,999.66
2018-09-21T06:13:11.911Z,999.70
2018-09-21T06:14:11.840Z,999.56
2018-09-21T06:15:11.816Z,999.64
2018-09-21T06:16:11.794Z,999.82
2018-09-21T06:17:11.774Z,999.85
2018-09-21T06:18:11.752Z,999.77
2018-09-21T06:19:11.978Z,999.79
2018-09-21T06:20:12.185Z,999.85
2018-09-21T09:19:13.908Z,998.36
2018-09-21T09:58:52.453Z,998.39
2018-09-21T09:59:52.227Z,998.57
2018-09-21T10:00:52.204Z,998.02
2018-09-21T10:01:52.181Z,998.61
2018-09-21T10:02:52.164Z,998.50
2018-09-21T10:03:52.168Z,998.40
2018-09-21T10:04:52.114Z,998.36
2018-09-21T10:05:52.086Z,997.96
2018-09-21T10:06:52.064Z,998.59
2018-09-21T10:07:52.040Z,998.07
2018-09-21T10:08:52.021Z,998.29
2018-09-21T10:09:51.997Z,998.20
2018-09-21T10:10:51.972Z,998.11
2018-09-21T10:11:51.948Z,998.25
2018-09-21T10:12:51.926Z,998.16
2018-09-21T10:13:51.902Z,998.41
2018-09-21T10:14:51.885Z,998.27
2018-09-21T10:15:51.858Z,998.18
2018-09-21T10:16:51.837Z,998.36
2018-09-21T10:17:51.817Z,998.36
2018-09-21T10:18:51.789Z,998.09
2018-09-21T10:19:51.766Z,998.12
2018-09-21T10:20:51.746Z,998.22
2018-09-21T10:21:51.726Z,998.30
2018-09-21T10:22:51.702Z,998.24
2018-09-21T10:32:17.710Z,997.98
2018-09-21T10:36:06.293Z,997.89
2018-09-21T10:37:06.076Z,997.83
2018-09-21T10:38:06.049Z,997.95
2018-09-21T10:39:06.065Z,997.92
2018-09-21T10:40:06.102Z,998.22
2018-09-21T10:41:05.975Z,997.92
2018-09-21T10:43:39.139Z,998.08
2018-09-21T10:44:39.118Z,997.95
2018-09-21T10:45:06.093Z,997.93
2018-09-21T10:47:05.839Z,997.94
2018-09-21T10:48:05.816Z,997.98
2018-09-21T10:50:05.771Z,997.84
2018-09-21T10:51:05.756Z,997.98
2018-09-21T10:58:00.971Z,998.75
2018-09-21T10:59:00.745Z,998.79
2018-09-21T11:00:03.545Z,998.83
2018-09-21T11:01:00.724Z,999.12
2018-09-21T11:02:43.028Z,999.09
2018-09-21T11:03:42.803Z,998.90
2018-09-21T11:04:42.778Z,999.21
2018-09-21T11:05:42.754Z,998.98
2018-09-21T11:06:42.729Z,999.30
2018-09-21T11:07:42.703Z,999.33
2018-09-21T11:08:42.679Z,999.16
2018-09-21T11:09:43.058Z,998.99
2018-09-21T11:10:42.835Z,999.34
2018-09-21T11:11:42.603Z,999.25
2018-09-21T11:12:42.780Z,999.27
2018-09-21T11:13:42.552Z,999.61
2018-09-21T11:16:49.178Z,999.51
2018-09-21T11:19:55.608Z,1000.03
2018-09-21T11:20:55.574Z,999.63
2018-09-21T11:21:55.550Z,1000.05
2018-09-21T11:22:55.319Z,999.98
2018-09-21T11:23:55.293Z,1000.07
2018-09-21T11:24:55.468Z,1000.36
2018-09-21T11:25:55.239Z,999.97
2018-09-21T11:26:55.416Z,1000.14
2018-09-21T11:28:37.540Z,1000.14
2018-09-21T11:29:37.514Z,1000.20
2018-09-21T11:30:37.492Z,1000.18
2018-09-21T11:31:37.458Z,1000.22
2018-09-21T11:32:37.433Z,1000.19
2018-09-21T11:33:37.201Z,1000.13
2018-09-21T11:34:37.176Z,1000.08
2018-09-21T11:35:37.148Z,1000.18
2018-09-21T11:36:37.121Z,1000.10
2018-09-21T11:38:19.445Z,1000.05
2018-09-21T11:39:19.218Z,1000.06
2018-09-21T11:40:19.189Z,1000.12
2018-09-21T11:41:19.163Z,1000.10
2018-09-21T11:42:19.136Z,1000.13
2018-09-21T11:43:19.108Z,1000.17
2018-09-21T11:44:19.091Z,1000.22
2018-09-21T11:45:19.057Z,1000.24
2018-09-21T11:46:19.286Z,1000.18
2018-09-21T11:47:19.152Z,1000.32
2018-09-21T11:48:18.979Z,1000.30
2018-09-21T11:51:25.599Z,1000.17
2018-09-21T11:52:25.391Z,1000.49
2018-09-21T11:53:25.350Z,1000.44
2018-09-21T11:54:25.319Z,1000.69
2018-09-21T11:55:25.290Z,1000.66
2018-09-21T11:56:25.264Z,1000.75
2018-09-21T11:57:25.239Z,1000.83
2018-09-21T11:58:25.213Z,1000.78
2018-09-21T11:59:25.189Z,1000.80
2018-09-21T12:00:25.160Z,1000.77
2018-09-21T12:01:25.132Z,1000.75
2018-09-21T12:02:25.109Z,1000.82
2018-09-21T12:03:25.080Z,1000.70
2018-09-21T12:04:25.055Z,1000.96
2018-09-21T12:05:25.027Z,1000.85
2018-09-21T12:06:25.002Z,1000.98
2018-09-21T12:09:31.627Z,1000.86
2018-09-21T12:10:31.427Z,1000.83
2018-09-21T12:11:31.371Z,1000.66
2018-09-21T12:12:31.345Z,1000.84
2018-09-21T12:13:31.319Z,1000.92
2018-09-21T12:15:13.644Z,1000.85
2018-09-21T12:16:13.419Z,1000.92
2018-09-21T12:18:37.891Z,1000.84
2018-09-21T12:19:37.662Z,1000.78
2018-09-21T12:20:37.635Z,1000.82
2018-09-21T12:22:22.586Z,1000.80
2018-09-21T12:23:19.734Z,1000.90
2018-09-21T12:24:19.716Z,1000.85
2018-09-21T12:25:19.683Z,1000.86
2018-09-21T12:26:19.809Z,1000.91
2018-09-21T12:27:19.629Z,1001.00
2018-09-21T12:28:19.604Z,1000.76
2018-09-21T12:29:19.589Z,1000.83
2018-09-21T12:30:19.591Z,1001.05
2018-09-21T12:31:19.527Z,1000.96
2018-09-21T12:32:19.502Z,1001.06
2018-09-21T12:44:34.130Z,1001.08
2018-09-21T12:45:33.840Z,1001.04
2018-09-21T12:46:33.816Z,1001.18
2018-09-21T12:47:33.787Z,1001.32
2018-09-21T12:48:33.761Z,1001.11
2018-09-21T12:49:33.734Z,1001.33
2018-09-21T12:50:33.736Z,1001.38
2018-09-21T12:51:33.682Z,1001.55
2018-09-21T12:52:33.656Z,1001.49
2018-09-21T12:53:33.635Z,1001.41
2018-09-21T12:54:33.613Z,1001.42
2018-09-21T12:55:33.577Z,1001.27
2018-09-21T12:56:33.589Z,1001.32
2018-09-21T12:57:33.536Z,1001.37
2018-09-21T12:58:33.588Z,1001.32
2018-09-21T12:59:33.472Z,1001.34
2018-09-21T13:00:33.446Z,1001.35
2018-09-21T13:01:33.419Z,1001.32
2018-09-21T13:02:33.441Z,1001.39
2018-09-21T13:03:33.367Z,1001.44
2018-09-21T13:04:33.341Z,1001.58
2018-09-21T13:05:33.313Z,1001.50
2018-09-21T13:06:33.288Z,1001.56
2018-09-21T13:07:33.262Z,1001.63
2018-09-21T13:08:33.237Z,1001.46
2018-09-21T13:09:33.209Z,1001.58
2018-09-21T13:10:33.184Z,1001.51
2018-09-21T13:11:33.160Z,1001.60
2018-09-21T13:12:33.133Z,1001.66
2018-09-21T13:13:33.105Z,1001.52
2018-09-21T13:14:33.234Z,1001.52
2018-09-21T13:15:33.054Z,1001.43
2018-09-21T13:16:33.037Z,1001.51
2018-09-21T13:17:33.204Z,1001.50
2018-09-21T13:18:32.979Z,1001.44
2018-09-21T13:19:33.202Z,1001.34
2018-09-21T13:20:32.933Z,1001.41
2018-09-21T13:21:32.900Z,1001.49
2018-09-21T13:22:32.877Z,1001.55
2018-09-21T13:23:32.852Z,1001.64
2018-09-21T13:24:32.827Z,1001.69
2018-09-21T13:25:32.801Z,1001.85
2018-09-21T13:26:32.779Z,1001.70
2018-09-21T13:27:32.745Z,1001.70
2018-09-21T13:28:32.921Z,1001.91
2018-09-21T13:29:32.695Z,1001.60
2018-09-21T13:30:32.668Z,1001.65
2018-09-21T13:31:32.652Z,1001.39
2018-09-21T13:32:32.619Z,1001.40
2018-09-21T13:33:32.595Z,1001.51
2018-09-21T13:34:32.571Z,1001.64
2018-09-21T13:35:32.540Z,1001.57
2018-09-21T13:36:32.517Z,1001.58
2018-09-21T13:37:32.493Z,1001.62
2018-09-21T13:38:32.464Z,1001.67
2018-09-21T13:39:32.440Z,1001.72
2018-09-21T13:40:32.414Z,1001.76
2018-09-21T13:41:32.391Z,1001.61
2018-09-21T13:42:32.364Z,1001.76
2018-09-21T13:43:32.337Z,1001.71
2018-09-21T13:44:32.524Z,1001.77
2018-09-21T13:45:32.294Z,1001.59
2018-09-21T13:46:32.261Z,1001.81
2018-09-21T13:47:32.236Z,1001.52
2018-09-21T13:48:32.418Z,1001.74
2018-09-21T13:49:32.184Z,1001.69
2018-09-21T13:50:32.160Z,1001.69
2018-09-21T13:51:32.136Z,1001.67
2018-09-21T13:52:32.110Z,1001.67
2018-09-21T13:53:32.086Z,1001.62
2018-09-21T13:54:32.061Z,1001.71
2018-09-21T13:55:32.185Z,1001.75
2018-09-21T13:56:32.016Z,1001.68
2018-09-21T13:57:31.982Z,1001.87
2018-09-21T13:58:31.960Z,1001.49
2018-09-21T13:59:31.934Z,1001.92
2018-09-21T14:00:31.908Z,1001.64
2018-09-21T14:01:32.133Z,1001.86
2018-09-21T14:02:31.858Z,1001.84
2018-09-21T14:03:31.837Z,1001.95
2018-09-21T14:04:31.809Z,1001.77
2018-09-21T14:05:31.803Z,1001.82
2018-09-21T14:06:31.757Z,1001.72
2018-09-21T14:07:31.733Z,1001.80
2018-09-21T14:08:31.708Z,1001.94
2018-09-21T14:09:31.693Z,1001.78
2018-09-21T14:10:31.657Z,1002.16
2018-09-21T14:11:31.632Z,1002.00
2018-09-21T14:12:31.607Z,1001.81
2018-09-21T14:13:31.882Z,1002.08
2018-09-21T14:14:31.556Z,1002.04
2018-09-21T14:15:31.532Z,1002.16
2018-09-21T14:16:31.507Z,1002.02
2018-09-21T14:17:31.481Z,1001.92
2018-09-21T14:18:31.462Z,1002.10
2018-09-21T14:19:31.432Z,1002.06
2018-09-21T14:20:31.406Z,1002.06
2018-09-21T14:21:31.437Z,1002.09
2018-09-21T14:22:31.356Z,1002.16
2018-09-21T14:23:31.330Z,1002.22
2018-09-21T14:24:31.305Z,1001.98
2018-09-21T14:25:31.583Z,1002.10
2018-09-21T14:26:31.255Z,1002.25
2018-09-21T14:27:31.230Z,1002.08
2018-09-21T14:28:31.227Z,1001.97
2018-09-21T14:29:31.179Z,1002.37
2018-09-21T14:30:31.155Z,1002.38
2018-09-21T14:31:31.132Z,1002.22
2018-09-21T14:32:31.105Z,1002.22
2018-09-21T14:33:31.079Z,1002.14
2018-09-21T14:34:31.063Z,1002.26
2018-09-21T14:35:31.028Z,1002.18
2018-09-21T14:36:31.004Z,1002.05
2018-09-21T14:37:31.028Z,1002.37
2018-09-21T14:38:30.957Z,1002.17
2018-09-21T14:39:30.931Z,1002.34
2018-09-21T14:40:30.903Z,1002.26
2018-09-21T14:41:30.902Z,1002.42
2018-09-21T14:42:30.851Z,1002.39
2018-09-21T14:43:30.827Z,1002.26
2018-09-21T14:44:30.801Z,1002.41
2018-09-21T14:45:30.776Z,1002.14
2018-09-21T14:46:30.751Z,1002.37
2018-09-21T14:47:30.726Z,1002.34
2018-09-21T14:48:30.701Z,1002.19
2018-09-21T14:49:30.678Z,1002.30
2018-09-21T14:50:30.659Z,1002.38
2018-09-21T14:51:30.623Z,1002.12
2018-09-21T14:52:30.599Z,1002.30
2018-09-21T14:53:30.573Z,1002.45
2018-09-21T14:54:30.553Z,1002.39
2018-09-21T14:55:30.573Z,1002.38
2018-09-21T14:56:30.497Z,1002.59
2018-09-21T14:57:30.480Z,1002.54
2018-09-21T14:58:30.446Z,1002.40
2018-09-21T14:59:30.420Z,1002.57
2018-09-21T15:00:30.396Z,1002.61
2018-09-21T15:01:30.374Z,1002.65
2018-09-21T15:02:30.345Z,1002.72
2018-09-21T15:03:30.320Z,1002.53
2018-09-21T15:04:30.295Z,1002.52
2018-09-21T15:05:30.271Z,1002.55
2018-09-21T15:06:30.269Z,1002.52
2018-09-21T15:07:30.218Z,1002.44
2018-09-21T15:08:30.259Z,1002.37
2018-09-21T15:09:30.171Z,1002.60
2018-09-21T15:10:30.146Z,1002.68
2018-09-21T15:11:30.119Z,1002.71
2018-09-21T15:12:30.096Z,1002.86
2018-09-21T15:13:30.069Z,1002.77
2018-09-21T15:14:30.045Z,1002.77
2018-09-21T15:15:30.020Z,1002.64
2018-09-21T15:16:30.033Z,1002.93
2018-09-21T15:17:30.005Z,1002.84
2018-09-21T15:18:30.150Z,1002.89
2018-09-21T15:19:29.921Z,1002.96
2018-09-21T15:20:29.896Z,1002.95
2018-09-21T15:21:29.872Z,1003.08
2018-09-21T15:22:29.847Z,1003.09
2018-09-21T15:23:29.822Z,1003.04
2018-09-21T15:24:29.801Z,1003.09
2018-09-21T15:25:29.774Z,1002.96
2018-09-21T15:26:29.751Z,1003.13
2018-09-21T15:27:29.727Z,1003.23
2018-09-21T15:28:29.703Z,1003.03
2018-09-21T15:29:29.888Z,1003.12
2018-09-21T15:30:29.657Z,1002.96
2018-09-21T15:38:31.704Z,1002.79
2018-09-21T15:39:31.127Z,1002.74
2018-09-21T15:40:31.103Z,1002.70
2018-09-21T15:41:31.079Z,1002.45
2018-09-21T15:42:31.054Z,1002.58
2018-09-21T15:43:31.114Z,1002.33
2018-09-21T15:44:31.013Z,1002.78
2018-09-21T15:45:31.001Z,1002.76
2018-09-21T15:46:30.957Z,1003.01
2018-09-21T15:47:30.936Z,1002.84
2018-09-21T15:48:31.059Z,1003.27
2018-09-21T15:49:30.884Z,1003.30
2018-09-21T15:50:30.859Z,1003.26
2018-09-21T15:51:30.834Z,1002.99
2018-09-21T15:52:30.810Z,1003.06
2018-09-21T15:53:30.788Z,1002.76
2018-09-21T15:54:30.761Z,1002.98
2018-09-21T15:55:30.747Z,1002.88
2018-09-21T15:56:30.728Z,1002.95
2018-09-21T15:57:30.690Z,1002.80
2018-09-21T15:58:30.662Z,1003.17
2018-09-21T15:59:30.636Z,1002.69
2018-09-21T16:00:30.613Z,1003.07
2018-09-21T16:01:30.587Z,1002.96
2018-09-21T16:02:30.562Z,1002.86
2018-09-21T16:03:30.539Z,1002.67
2018-09-21T16:04:30.513Z,1002.84
2018-09-21T16:05:30.488Z,1003.02
2018-09-21T16:06:30.463Z,1002.83
2018-09-21T16:07:30.439Z,1002.55
2018-09-21T16:08:30.413Z,1002.75
2018-09-21T16:09:30.388Z,1002.71
2018-09-21T16:10:30.364Z,1002.92
2018-09-21T16:11:30.339Z,1002.79
2018-09-21T16:12:30.316Z,1003.09
2018-09-21T16:13:30.289Z,1002.83
2018-09-21T16:14:30.347Z,1003.01
2018-09-21T16:15:30.239Z,1002.95
2018-09-21T16:16:30.217Z,1002.88
2018-09-21T16:17:30.189Z,1002.84
2018-09-21T16:18:30.167Z,1002.68
2018-09-21T16:19:30.140Z,1003.18
2018-09-21T16:20:30.115Z,1002.69
2018-09-21T16:21:30.090Z,1002.98
2018-09-21T16:22:30.066Z,1002.92
2018-09-21T16:23:30.041Z,1002.92
2018-09-21T16:24:30.017Z,1002.96
2018-09-21T16:25:29.993Z,1002.71
2018-09-21T16:26:29.975Z,1002.90
2018-09-21T16:27:29.942Z,1002.94
2018-09-21T16:28:29.917Z,1002.53
2018-09-21T16:29:29.893Z,1002.88
2018-09-21T16:30:29.868Z,1002.87
2018-09-21T16:31:29.842Z,1002.85
2018-09-21T16:32:29.821Z,1002.94
2018-09-21T16:33:29.792Z,1002.90
2018-09-21T16:34:29.769Z,1003.06
2018-09-21T16:35:29.745Z,1002.93
2018-09-21T16:36:29.747Z,1002.85
2018-09-21T16:37:29.695Z,1002.95
2018-09-21T16:38:29.671Z,1002.98
2018-09-21T16:39:29.643Z,1002.64
2018-09-21T16:40:29.637Z,1003.24
2018-09-21T16:41:29.596Z,1002.96
2018-09-21T16:42:29.570Z,1003.09
2018-09-21T16:43:29.544Z,1002.95
2018-09-21T16:44:29.564Z,1003.10
2018-09-21T16:45:29.497Z,1003.10
2018-09-21T16:46:29.474Z,1002.77
2018-09-21T16:47:29.456Z,1002.95
2018-09-21T16:48:29.421Z,1003.16
2018-09-21T16:49:29.398Z,1003.02
2018-09-21T16:50:29.371Z,1002.72
2018-09-21T16:51:29.355Z,1003.13
2018-09-21T16:52:29.391Z,1003.04
2018-09-21T16:53:29.297Z,1003.15